sensor_id;sensor_type;location;lat;lon;timestamp;pressure;altitude;pressure_sealevel;temperature;humidity
22753;BME280;11543;43.144;24.684;2022-12-29T00:01:04;99877.53;;;8.46;61.55
22753;BME280;11543;43.144;24.684;2022-12-29T00:03:30;99879.75;;;8.52;61.17
22753;BME280;11543;43.144;24.684;2022-12-29T00:05:55;99876.81;;;8.44;61.35
22753;BME280;11543;43.144;24.684;2022-12-29T00:08:22;99885.78;;;8.43;61.03
22753;BME280;11543;43.144;24.684;2022-12-29T00:11:04;99882.38;;;8.41;60.89
22753;BME280;11543;43.144;24.684;2022-12-29T00:13:29;99894.78;;;8.42;60.70
22753;BME280;11543;43.144;24.684;2022-12-29T00:16:13;99889.44;;;8.42;60.49
22753;BME280;11543;43.144;24.684;2022-12-29T00:18:39;99886.88;;;8.40;60.46
22753;BME280;11543;43.144;24.684;2022-12-29T00:21:04;99888.69;;;8.40;60.50
22753;BME280;11543;43.144;24.684;2022-12-29T00:23:48;99895.00;;;8.39;60.29
22753;BME280;11543;43.144;24.684;2022-12-29T00:26:32;99901.22;;;8.39;60.20
22753;BME280;11543;43.144;24.684;2022-12-29T00:29:16;99903.78;;;8.41;60.22
22753;BME280;11543;43.144;24.684;2022-12-29T00:32:00;99900.00;;;8.43;60.28
22753;BME280;11543;43.144;24.684;2022-12-29T00:34:43;99899.66;;;8.48;60.36
22753;BME280;11543;43.144;24.684;2022-12-29T00:37:27;99889.47;;;8.53;60.55
22753;BME280;11543;43.144;24.684;2022-12-29T00:40:12;99883.78;;;8.57;60.55
22753;BME280;11543;43.144;24.684;2022-12-29T00:42:56;99887.06;;;8.61;60.75
22753;BME280;11543;43.144;24.684;2022-12-29T00:45:41;99884.38;;;8.61;60.77
22753;BME280;11543;43.144;24.684;2022-12-29T00:48:07;99893.16;;;8.63;60.72
22753;BME280;11543;43.144;24.684;2022-12-29T00:50:33;99889.31;;;8.67;60.55
22753;BME280;11543;43.144;24.684;2022-12-29T00:53:00;99884.69;;;8.69;60.76
22753;BME280;11543;43.144;24.684;2022-12-29T00:55:25;99894.53;;;8.69;61.05
22753;BME280;11543;43.144;24.684;2022-12-29T00:57:51;99894.84;;;8.64;61.46
22753;BME280;11543;43.144;24.684;2022-12-29T01:00:16;99895.31;;;8.58;62.05
22753;BME280;11543;43.144;24.684;2022-12-29T01:02:41;99896.78;;;8.62;62.37
22753;BME280;11543;43.144;24.684;2022-12-29T01:05:06;99890.22;;;8.55;62.69
22753;BME280;11543;43.144;24.684;2022-12-29T01:07:32;99896.53;;;8.54;62.71
22753;BME280;11543;43.144;24.684;2022-12-29T01:09:57;99895.56;;;8.55;63.12
22753;BME280;11543;43.144;24.684;2022-12-29T01:12:34;99888.28;;;8.57;62.86
22753;BME280;11543;43.144;24.684;2022-12-29T01:15:06;99883.41;;;8.62;62.60
22753;BME280;11543;43.144;24.684;2022-12-29T01:17:32;99884.16;;;8.64;62.63
22753;BME280;11543;43.144;24.684;2022-12-29T01:19:57;99874.94;;;8.68;62.29
22753;BME280;11543;43.144;24.684;2022-12-29T01:22:22;99880.06;;;8.71;62.11
22753;BME280;11543;43.144;24.684;2022-12-29T01:24:48;99865.72;;;8.72;61.88
22753;BME280;11543;43.144;24.684;2022-12-29T01:27:14;99863.66;;;8.76;61.71
22753;BME280;11543;43.144;24.684;2022-12-29T01:29:39;99855.75;;;8.74;61.50
22753;BME280;11543;43.144;24.684;2022-12-29T01:32:04;99858.66;;;8.71;61.24
22753;BME280;11543;43.144;24.684;2022-12-29T01:34:30;99854.28;;;8.70;60.98
22753;BME280;11543;43.144;24.684;2022-12-29T01:36:55;99856.22;;;8.68;60.83
22753;BME280;11543;43.144;24.684;2022-12-29T01:39:20;99851.84;;;8.67;61.23
22753;BME280;11543;43.144;24.684;2022-12-29T01:41:46;99848.88;;;8.59;61.61
22753;BME280;11543;43.144;24.684;2022-12-29T01:46:55;99831.28;;;8.32;62.85
22753;BME280;11543;43.144;24.684;2022-12-29T01:49:21;99828.78;;;8.18;63.22
22753;BME280;11543;43.144;24.684;2022-12-29T01:51:53;99827.78;;;8.08;63.96
22753;BME280;11543;43.144;24.684;2022-12-29T01:54:24;99825.63;;;8.13;64.24
22753;BME280;11543;43.144;24.684;2022-12-29T01:56:51;99816.78;;;8.24;64.54
22753;BME280;11543;43.144;24.684;2022-12-29T01:59:19;99812.06;;;8.27;64.69
22753;BME280;11543;43.144;24.684;2022-12-29T02:01:47;99809.63;;;8.24;64.61
22753;BME280;11543;43.144;24.684;2022-12-29T02:04:13;99809.94;;;8.09;64.49
22753;BME280;11543;43.144;24.684;2022-12-29T02:06:46;99806.13;;;8.00;64.80
22753;BME280;11543;43.144;24.684;2022-12-29T02:09:13;99814.94;;;7.89;65.27
22753;BME280;11543;43.144;24.684;2022-12-29T02:11:38;99804.03;;;7.92;65.29
22753;BME280;11543;43.144;24.684;2022-12-29T02:14:11;99809.38;;;7.92;65.61
22753;BME280;11543;43.144;24.684;2022-12-29T02:31:58;99793.84;;;7.97;65.34
22753;BME280;11543;43.144;24.684;2022-12-29T02:43:04;99778.75;;;8.20;64.91
22753;BME280;11543;43.144;24.684;2022-12-29T02:50:37;99775.94;;;8.22;64.41
22753;BME280;11543;43.144;24.684;2022-12-29T02:53:05;99777.03;;;8.19;63.92
22753;BME280;11543;43.144;24.684;2022-12-29T02:55:31;99765.09;;;8.12;63.50
22753;BME280;11543;43.144;24.684;2022-12-29T03:00:42;99767.47;;;7.93;62.95
22753;BME280;11543;43.144;24.684;2022-12-29T03:08:28;99759.53;;;7.80;62.67
22753;BME280;11543;43.144;24.684;2022-12-29T03:10:59;99767.63;;;7.79;62.94
22753;BME280;11543;43.144;24.684;2022-12-29T03:13:44;99762.09;;;7.82;62.98
22753;BME280;11543;43.144;24.684;2022-12-29T03:19:05;99756.28;;;7.88;63.35
22753;BME280;11543;43.144;24.684;2022-12-29T03:21:37;99759.41;;;7.82;63.24
22753;BME280;11543;43.144;24.684;2022-12-29T03:24:25;99754.56;;;7.87;63.46
22753;BME280;11543;43.144;24.684;2022-12-29T03:26:52;99756.78;;;7.93;63.47
22753;BME280;11543;43.144;24.684;2022-12-29T03:29:19;99757.53;;;7.95;63.42
22753;BME280;11543;43.144;24.684;2022-12-29T03:31:45;99751.44;;;7.93;63.46
22753;BME280;11543;43.144;24.684;2022-12-29T03:34:12;99761.41;;;7.91;63.30
22753;BME280;11543;43.144;24.684;2022-12-29T03:36:42;99756.28;;;7.88;63.08
22753;BME280;11543;43.144;24.684;2022-12-29T03:39:09;99765.50;;;7.84;63.24
22753;BME280;11543;43.144;24.684;2022-12-29T03:41:42;99763.81;;;7.70;62.87
22753;BME280;11543;43.144;24.684;2022-12-29T03:44:09;99768.44;;;7.44;62.27
22753;BME280;11543;43.144;24.684;2022-12-29T03:46:35;99770.97;;;7.22;62.79
22753;BME280;11543;43.144;24.684;2022-12-29T03:49:00;99774.47;;;7.22;64.41
22753;BME280;11543;43.144;24.684;2022-12-29T03:51:25;99785.34;;;7.32;64.41
22753;BME280;11543;43.144;24.684;2022-12-29T03:53:51;99782.97;;;7.40;64.60
22753;BME280;11543;43.144;24.684;2022-12-29T03:56:16;99782.53;;;7.46;65.05
22753;BME280;11543;43.144;24.684;2022-12-29T03:58:41;99785.94;;;7.48;64.73
22753;BME280;11543;43.144;24.684;2022-12-29T04:01:07;99786.91;;;7.47;64.63
22753;BME280;11543;43.144;24.684;2022-12-29T04:03:32;99780.81;;;7.45;64.23
22753;BME280;11543;43.144;24.684;2022-12-29T04:05:58;99786.16;;;7.45;64.09
22753;BME280;11543;43.144;24.684;2022-12-29T04:08:23;99786.16;;;7.45;64.13
22753;BME280;11543;43.144;24.684;2022-12-29T04:10:48;99788.31;;;7.40;64.40
22753;BME280;11543;43.144;24.684;2022-12-29T04:13:14;99789.28;;;7.39;64.48
22753;BME280;11543;43.144;24.684;2022-12-29T04:15:39;99793.88;;;7.37;64.09
22753;BME280;11543;43.144;24.684;2022-12-29T04:18:06;99793.88;;;7.37;64.00
22753;BME280;11543;43.144;24.684;2022-12-29T04:20:31;99797.50;;;7.36;63.89
22753;BME280;11543;43.144;24.684;2022-12-29T04:23:15;99787.28;;;7.30;63.61
22753;BME280;11543;43.144;24.684;2022-12-29T04:25:40;99783.13;;;7.26;63.27
22753;BME280;11543;43.144;24.684;2022-12-29T04:28:06;99776.19;;;7.23;62.99
22753;BME280;11543;43.144;24.684;2022-12-29T04:30:32;99784.53;;;7.19;62.80
22753;BME280;11543;43.144;24.684;2022-12-29T04:32:58;99789.88;;;7.19;63.00
22753;BME280;11543;43.144;24.684;2022-12-29T04:35:23;99789.88;;;7.19;62.66
22753;BME280;11543;43.144;24.684;2022-12-29T04:37:48;99795.22;;;7.19;62.51
22753;BME280;11543;43.144;24.684;2022-12-29T04:40:14;99791.56;;;7.20;62.13
22753;BME280;11543;43.144;24.684;2022-12-29T04:42:39;99785.38;;;7.19;61.97
22753;BME280;11543;43.144;24.684;2022-12-29T04:45:04;99794.97;;;7.22;62.08
22753;BME280;11543;43.144;24.684;2022-12-29T04:47:30;99800.31;;;7.22;62.17
22753;BME280;11543;43.144;24.684;2022-12-29T04:49:55;99809.06;;;7.24;61.84
22753;BME280;11543;43.144;24.684;2022-12-29T04:52:20;99803.53;;;7.14;62.60
22753;BME280;11543;43.144;24.684;2022-12-29T04:54:45;99806.78;;;6.94;62.67
22753;BME280;11543;43.144;24.684;2022-12-29T04:57:11;99807.63;;;6.69;63.12
22753;BME280;11543;43.144;24.684;2022-12-29T04:59:36;99821.28;;;6.52;63.61
22753;BME280;11543;43.144;24.684;2022-12-29T05:02:01;99818.50;;;6.41;63.58
22753;BME280;11543;43.144;24.684;2022-12-29T05:04:26;99819.78;;;6.48;64.63
22753;BME280;11543;43.144;24.684;2022-12-29T05:06:52;99812.97;;;6.56;65.09
22753;BME280;11543;43.144;24.684;2022-12-29T05:09:17;99809.75;;;6.64;64.92
22753;BME280;11543;43.144;24.684;2022-12-29T05:11:42;99811.25;;;6.68;64.57
22753;BME280;11543;43.144;24.684;2022-12-29T05:14:08;99808.91;;;6.76;63.84
22753;BME280;11543;43.144;24.684;2022-12-29T05:16:33;99812.84;;;6.83;63.80
22753;BME280;11543;43.144;24.684;2022-12-29T05:18:58;99815.28;;;6.86;64.05
22753;BME280;11543;43.144;24.684;2022-12-29T05:21:23;99815.06;;;6.89;64.46
22753;BME280;11543;43.144;24.684;2022-12-29T05:23:49;99809.75;;;6.89;64.04
22753;BME280;11543;43.144;24.684;2022-12-29T05:26:14;99821.59;;;6.85;64.50
22753;BME280;11543;43.144;24.684;2022-12-29T05:28:39;99807.41;;;6.72;64.63
22753;BME280;11543;43.144;24.684;2022-12-29T05:31:04;99809.97;;;6.61;64.72
22753;BME280;11543;43.144;24.684;2022-12-29T05:33:30;99818.06;;;6.47;65.00
22753;BME280;11543;43.144;24.684;2022-12-29T05:35:55;99816.13;;;6.23;65.27
22753;BME280;11543;43.144;24.684;2022-12-29T05:38:20;99820.59;;;5.96;65.35
22753;BME280;11543;43.144;24.684;2022-12-29T05:40:47;99822.75;;;5.76;65.94
22753;BME280;11543;43.144;24.684;2022-12-29T05:43:12;99821.84;;;5.63;66.56
22753;BME280;11543;43.144;24.684;2022-12-29T05:45:37;99824.75;;;5.46;65.83
22753;BME280;11543;43.144;24.684;2022-12-29T05:48:03;99828.75;;;5.39;66.35
22753;BME280;11543;43.144;24.684;2022-12-29T05:50:28;99832.56;;;5.35;66.23
22753;BME280;11543;43.144;24.684;2022-12-29T05:52:53;99831.66;;;5.22;66.01
22753;BME280;11543;43.144;24.684;2022-12-29T05:55:18;99834.09;;;5.10;65.15
22753;BME280;11543;43.144;24.684;2022-12-29T05:57:44;99826.13;;;5.10;65.56
22753;BME280;11543;43.144;24.684;2022-12-29T06:00:09;99835.81;;;5.11;65.69
22753;BME280;11543;43.144;24.684;2022-12-29T06:02:35;99845.88;;;5.06;66.61
22753;BME280;11543;43.144;24.684;2022-12-29T06:05:00;99857.28;;;5.08;67.24
22753;BME280;11543;43.144;24.684;2022-12-29T06:07:25;99853.09;;;5.19;68.56
22753;BME280;11543;43.144;24.684;2022-12-29T06:09:51;99851.75;;;5.40;69.16
22753;BME280;11543;43.144;24.684;2022-12-29T06:12:16;99851.56;;;5.43;68.37
22753;BME280;11543;43.144;24.684;2022-12-29T06:14:41;99853.44;;;5.55;68.57
22753;BME280;11543;43.144;24.684;2022-12-29T06:17:07;99858.91;;;5.66;68.24
22753;BME280;11543;43.144;24.684;2022-12-29T06:19:32;99868.78;;;5.79;68.24
22753;BME280;11543;43.144;24.684;2022-12-29T06:21:58;99866.47;;;5.87;67.42
22753;BME280;11543;43.144;24.684;2022-12-29T06:24:23;99859.06;;;5.92;67.01
22753;BME280;11543;43.144;24.684;2022-12-29T06:26:49;99864.53;;;6.03;66.49
22753;BME280;11543;43.144;24.684;2022-12-29T06:29:14;99863.41;;;6.07;66.45
22753;BME280;11543;43.144;24.684;2022-12-29T06:31:43;99863.00;;;6.13;66.22
22753;BME280;11543;43.144;24.684;2022-12-29T06:34:11;99871.63;;;6.17;65.97
22753;BME280;11543;43.144;24.684;2022-12-29T06:36:36;99865.25;;;6.19;65.56
22753;BME280;11543;43.144;24.684;2022-12-29T06:39:02;99868.25;;;6.27;65.53
22753;BME280;11543;43.144;24.684;2022-12-29T06:41:27;99874.13;;;6.32;65.51
22753;BME280;11543;43.144;24.684;2022-12-29T06:43:53;99876.25;;;6.27;64.66
22753;BME280;11543;43.144;24.684;2022-12-29T06:46:18;99869.81;;;6.17;65.32
22753;BME280;11543;43.144;24.684;2022-12-29T06:48:43;99871.63;;;5.90;65.63
22753;BME280;11543;43.144;24.684;2022-12-29T06:51:09;99882.78;;;5.68;65.98
22753;BME280;11543;43.144;24.684;2022-12-29T06:53:34;99879.31;;;5.53;66.42
22753;BME280;11543;43.144;24.684;2022-12-29T06:55:59;99883.69;;;5.40;66.43
22753;BME280;11543;43.144;24.684;2022-12-29T06:58:25;99892.03;;;5.48;67.37
22753;BME280;11543;43.144;24.684;2022-12-29T07:00:51;99892.56;;;5.67;67.94
22753;BME280;11543;43.144;24.684;2022-12-29T07:03:16;99889.47;;;5.88;67.70
22753;BME280;11543;43.144;24.684;2022-12-29T07:05:42;99891.47;;;5.98;67.56
22753;BME280;11543;43.144;24.684;2022-12-29T07:08:07;99892.50;;;6.10;67.18
22753;BME280;11543;43.144;24.684;2022-12-29T07:10:32;99896.47;;;6.17;67.73
22753;BME280;11543;43.144;24.684;2022-12-29T07:12:58;99901.41;;;6.23;67.26
22753;BME280;11543;43.144;24.684;2022-12-29T07:15:23;99906.13;;;6.32;66.77
22753;BME280;11543;43.144;24.684;2022-12-29T07:17:48;99902.06;;;6.39;66.52
22753;BME280;11543;43.144;24.684;2022-12-29T07:20:16;99899.00;;;6.46;66.57
22753;BME280;11543;43.144;24.684;2022-12-29T07:22:42;99896.56;;;6.55;66.75
22753;BME280;11543;43.144;24.684;2022-12-29T07:25:07;99896.16;;;6.61;66.78
22753;BME280;11543;43.144;24.684;2022-12-29T07:27:33;99901.91;;;6.68;66.26
22753;BME280;11543;43.144;24.684;2022-12-29T07:29:58;99896.59;;;6.68;66.38
22753;BME280;11543;43.144;24.684;2022-12-29T07:32:23;99900.09;;;6.68;66.57
22753;BME280;11543;43.144;24.684;2022-12-29T07:34:49;99894.03;;;6.79;66.91
22753;BME280;11543;43.144;24.684;2022-12-29T07:37:14;99900.22;;;6.92;66.17
22753;BME280;11543;43.144;24.684;2022-12-29T07:39:41;99891.72;;;7.00;66.62
22753;BME280;11543;43.144;24.684;2022-12-29T07:42:06;99895.78;;;7.06;66.42
22753;BME280;11543;43.144;24.684;2022-12-29T07:44:31;99891.50;;;7.16;66.37
22753;BME280;11543;43.144;24.684;2022-12-29T07:46:56;99890.75;;;7.26;66.48
22753;BME280;11543;43.144;24.684;2022-12-29T07:49:22;99886.56;;;7.35;66.25
22753;BME280;11543;43.144;24.684;2022-12-29T07:51:48;99893.41;;;7.39;66.43
22753;BME280;11543;43.144;24.684;2022-12-29T07:54:16;99891.47;;;7.41;66.73
22753;BME280;11543;43.144;24.684;2022-12-29T07:56:43;99889.09;;;7.49;66.58
22753;BME280;11543;43.144;24.684;2022-12-29T07:59:08;99889.84;;;7.51;66.70
22753;BME280;11543;43.144;24.684;2022-12-29T08:01:37;99892.06;;;7.57;66.51
22753;BME280;11543;43.144;24.684;2022-12-29T08:04:02;99891.56;;;7.52;66.34
22753;BME280;11543;43.144;24.684;2022-12-29T08:06:27;99891.88;;;7.48;66.58
22753;BME280;11543;43.144;24.684;2022-12-29T08:08:54;99891.88;;;7.48;66.55
22753;BME280;11543;43.144;24.684;2022-12-29T08:11:21;99889.63;;;7.54;66.17
22753;BME280;11543;43.144;24.684;2022-12-29T08:13:49;99886.50;;;7.60;66.02
22753;BME280;11543;43.144;24.684;2022-12-29T08:16:14;99881.69;;;7.65;65.68
22753;BME280;11543;43.144;24.684;2022-12-29T08:18:39;99885.97;;;7.68;65.40
22753;BME280;11543;43.144;24.684;2022-12-29T08:21:05;99880.28;;;7.73;65.51
22753;BME280;11543;43.144;24.684;2022-12-29T08:23:30;99879.84;;;7.79;65.14
22753;BME280;11543;43.144;24.684;2022-12-29T08:26:02;99879.19;;;7.88;65.02
22753;BME280;11543;43.144;24.684;2022-12-29T08:28:28;99879.81;;;7.91;64.92
22753;BME280;11543;43.144;24.684;2022-12-29T08:30:53;99876.81;;;7.96;65.03
22753;BME280;11543;43.144;24.684;2022-12-29T08:33:19;99872.72;;;8.03;65.13
22753;BME280;11543;43.144;24.684;2022-12-29T08:35:44;99869.69;;;8.08;64.96
22753;BME280;11543;43.144;24.684;2022-12-29T08:38:09;99872.03;;;8.12;65.10
22753;BME280;11543;43.144;24.684;2022-12-29T08:40:36;99873.50;;;8.16;64.90
22753;BME280;11543;43.144;24.684;2022-12-29T08:43:01;99869.84;;;8.17;65.06
22753;BME280;11543;43.144;24.684;2022-12-29T08:45:27;99868.38;;;8.13;64.98
22753;BME280;11543;43.144;24.684;2022-12-29T08:47:52;99866.44;;;8.15;64.87
22753;BME280;11543;43.144;24.684;2022-12-29T08:50:17;99859.16;;;8.17;64.84
22753;BME280;11543;43.144;24.684;2022-12-29T08:52:42;99859.91;;;8.19;64.93
22753;BME280;11543;43.144;24.684;2022-12-29T08:55:08;99859.22;;;8.28;65.02
22753;BME280;11543;43.144;24.684;2022-12-29T08:57:33;99855.34;;;8.32;64.99
22753;BME280;11543;43.144;24.684;2022-12-29T08:59:59;99854.16;;;8.37;64.90
22753;BME280;11543;43.144;24.684;2022-12-29T09:02:24;99857.81;;;8.36;64.90
22753;BME280;11543;43.144;24.684;2022-12-29T09:04:49;99850.66;;;8.47;65.06
22753;BME280;11543;43.144;24.684;2022-12-29T09:07:14;99851.28;;;8.51;64.58
22753;BME280;11543;43.144;24.684;2022-12-29T09:09:40;99844.84;;;8.53;64.35
22753;BME280;11543;43.144;24.684;2022-12-29T09:12:05;99842.31;;;8.52;64.08
22753;BME280;11543;43.144;24.684;2022-12-29T09:14:30;99840.97;;;8.57;64.25
22753;BME280;11543;43.144;24.684;2022-12-29T09:16:56;99836.97;;;8.63;63.90
22753;BME280;11543;43.144;24.684;2022-12-29T09:19:40;99826.81;;;8.68;63.68
22753;BME280;11543;43.144;24.684;2022-12-29T09:22:05;99823.66;;;8.74;63.24
22753;BME280;11543;43.144;24.684;2022-12-29T09:24:31;99822.91;;;8.72;62.45
22753;BME280;11543;43.144;24.684;2022-12-29T09:26:56;99817.81;;;8.69;62.33
22753;BME280;11543;43.144;24.684;2022-12-29T09:29:21;99811.25;;;8.84;62.72
22753;BME280;11543;43.144;24.684;2022-12-29T09:31:47;99818.06;;;9.00;62.62
22753;BME280;11543;43.144;24.684;2022-12-29T09:34:12;99809.78;;;9.03;62.53
22753;BME280;11543;43.144;24.684;2022-12-29T09:36:37;99815.88;;;9.05;62.33
22753;BME280;11543;43.144;24.684;2022-12-29T09:39:02;99804.19;;;9.06;62.02
22753;BME280;11543;43.144;24.684;2022-12-29T09:42:03;99801.03;;;9.12;61.69
22753;BME280;11543;43.144;24.684;2022-12-29T09:44:26;99795.66;;;9.23;61.75
22753;BME280;11543;43.144;24.684;2022-12-29T09:46:53;99786.16;;;9.30;61.63
22753;BME280;11543;43.144;24.684;2022-12-29T09:51:51;99772.28;;;9.36;61.12
22753;BME280;11543;43.144;24.684;2022-12-29T09:56:42;99775.56;;;9.40;60.38
22753;BME280;11543;43.144;24.684;2022-12-29T09:59:32;99767.75;;;9.48;60.01
22753;BME280;11543;43.144;24.684;2022-12-29T10:02:12;99771.28;;;9.48;59.72
22753;BME280;11543;43.144;24.684;2022-12-29T10:04:41;99764.94;;;9.49;59.28
22753;BME280;11543;43.144;24.684;2022-12-29T10:07:25;99761.03;;;9.53;59.09
22753;BME280;11543;43.144;24.684;2022-12-29T10:12:27;99757.47;;;9.75;59.30
22753;BME280;11543;43.144;24.684;2022-12-29T10:17:24;99754.84;;;9.85;59.29
22753;BME280;11543;43.144;24.684;2022-12-29T10:25:08;99756.16;;;10.23;58.60
22753;BME280;11543;43.144;24.684;2022-12-29T10:27:37;99749.75;;;10.35;58.44
22753;BME280;11543;43.144;24.684;2022-12-29T10:30:02;99740.81;;;10.45;57.95
22753;BME280;11543;43.144;24.684;2022-12-29T10:34:58;99727.75;;;10.62;55.98
22753;BME280;11543;43.144;24.684;2022-12-29T10:40:24;99725.72;;;10.75;56.34
22753;BME280;11543;43.144;24.684;2022-12-29T10:42:52;99726.63;;;10.95;57.55
22753;BME280;11543;43.144;24.684;2022-12-29T10:45:18;99724.28;;;11.11;57.16
22753;BME280;11543;43.144;24.684;2022-12-29T10:48:04;99706.91;;;11.15;56.53
22753;BME280;11543;43.144;24.684;2022-12-29T10:50:31;99717.81;;;11.23;57.00
22753;BME280;11543;43.144;24.684;2022-12-29T10:53:12;99718.97;;;11.30;56.89
22753;BME280;11543;43.144;24.684;2022-12-29T10:55:41;99717.44;;;11.37;56.88
22753;BME280;11543;43.144;24.684;2022-12-29T10:58:07;99706.13;;;11.43;56.41
22753;BME280;11543;43.144;24.684;2022-12-29T11:00:35;99702.03;;;11.49;56.78
22753;BME280;11543;43.144;24.684;2022-12-29T11:07:56;99699.50;;;11.67;56.22
22753;BME280;11543;43.144;24.684;2022-12-29T11:12:55;99685.66;;;11.81;56.55
22753;BME280;11543;43.144;24.684;2022-12-29T11:15:20;99687.22;;;11.93;56.44
22753;BME280;11543;43.144;24.684;2022-12-29T11:17:47;99685.66;;;12.00;56.38
22753;BME280;11543;43.144;24.684;2022-12-29T11:22:54;99682.97;;;12.00;55.17
22753;BME280;11543;43.144;24.684;2022-12-29T11:25:19;99681.97;;;12.01;54.94
22753;BME280;11543;43.144;24.684;2022-12-29T11:28:30;99676.28;;;12.04;54.89
22753;BME280;11543;43.144;24.684;2022-12-29T11:30:31;99673.47;;;12.06;54.63
22753;BME280;11543;43.144;24.684;2022-12-29T11:32:57;99677.72;;;12.08;54.60
22753;BME280;11543;43.144;24.684;2022-12-29T11:35:29;99681.53;;;12.16;55.11
22753;BME280;11543;43.144;24.684;2022-12-29T11:37:56;99690.44;;;12.26;55.37
22753;BME280;11543;43.144;24.684;2022-12-29T11:40:22;99682.78;;;12.31;55.70
22753;BME280;11543;43.144;24.684;2022-12-29T11:42:48;99683.59;;;12.41;55.56
22753;BME280;11543;43.144;24.684;2022-12-29T11:45:16;99681.03;;;12.49;55.69
22753;BME280;11543;43.144;24.684;2022-12-29T11:47:44;99675.75;;;12.57;55.98
22753;BME280;11543;43.144;24.684;2022-12-29T11:50:15;99675.00;;;12.65;55.92
22753;BME280;11543;43.144;24.684;2022-12-29T11:52:42;99671.59;;;12.72;56.20
22753;BME280;11543;43.144;24.684;2022-12-29T11:55:13;99673.97;;;12.75;55.71
22753;BME280;11543;43.144;24.684;2022-12-29T11:57:41;99669.59;;;12.74;54.87
22753;BME280;11543;43.144;24.684;2022-12-29T12:00:14;99675.81;;;12.75;54.50
22753;BME280;11543;43.144;24.684;2022-12-29T12:02:45;99673.28;;;12.73;53.66
22753;BME280;11543;43.144;24.684;2022-12-29T12:07:39;99665.94;;;12.66;54.52
22753;BME280;11543;43.144;24.684;2022-12-29T12:10:05;99666.78;;;12.66;54.55
22753;BME280;11543;43.144;24.684;2022-12-29T12:12:47;99663.66;;;12.71;54.74
22753;BME280;11543;43.144;24.684;2022-12-29T12:15:22;99667.88;;;12.73;54.68
22753;BME280;11543;43.144;24.684;2022-12-29T12:20:21;99658.81;;;12.74;54.50
22753;BME280;11543;43.144;24.684;2022-12-29T12:23:36;99664.91;;;12.76;54.62
22753;BME280;11543;43.144;24.684;2022-12-29T12:25:43;99660.22;;;12.79;54.72
22753;BME280;11543;43.144;24.684;2022-12-29T12:28:20;99658.22;;;12.81;54.07
22753;BME280;11543;43.144;24.684;2022-12-29T12:30:49;99655.81;;;12.77;54.39
22753;BME280;11543;43.144;24.684;2022-12-29T12:33:27;99654.53;;;12.82;54.84
22753;BME280;11543;43.144;24.684;2022-12-29T12:41:11;99656.22;;;12.83;55.20
22753;BME280;11543;43.144;24.684;2022-12-29T12:54:06;99650.28;;;12.79;55.17
22753;BME280;11543;43.144;24.684;2022-12-29T13:02:00;99661.09;;;12.69;55.33
22753;BME280;11543;43.144;24.684;2022-12-29T13:10:05;99663.31;;;12.84;56.08
22753;BME280;11543;43.144;24.684;2022-12-29T13:12:27;99663.84;;;12.87;56.30
22753;BME280;11543;43.144;24.684;2022-12-29T13:15:05;99659.31;;;12.88;56.25
22753;BME280;11543;43.144;24.684;2022-12-29T13:17:55;99659.63;;;12.85;56.00
22753;BME280;11543;43.144;24.684;2022-12-29T13:25:33;99670.69;;;12.82;56.27
22753;BME280;11543;43.144;24.684;2022-12-29T13:30:35;99666.41;;;12.89;56.25
22753;BME280;11543;43.144;24.684;2022-12-29T13:33:24;99668.09;;;12.90;56.43
22753;BME280;11543;43.144;24.684;2022-12-29T13:35:59;99669.88;;;12.99;56.61
22753;BME280;11543;43.144;24.684;2022-12-29T13:38:34;99666.34;;;12.98;56.34
22753;BME280;11543;43.144;24.684;2022-12-29T13:41:03;99664.66;;;12.97;56.57
22753;BME280;11543;43.144;24.684;2022-12-29T13:43:29;99670.31;;;13.04;56.77
22753;BME280;11543;43.144;24.684;2022-12-29T13:46:02;99672.00;;;13.05;56.64
22753;BME280;11543;43.144;24.684;2022-12-29T13:48:51;99666.31;;;13.08;56.63
22753;BME280;11543;43.144;24.684;2022-12-29T13:51:15;99666.31;;;13.08;56.87
22753;BME280;11543;43.144;24.684;2022-12-29T13:59:14;99682.56;;;13.16;56.84
22753;BME280;11543;43.144;24.684;2022-12-29T14:01:59;99677.91;;;13.18;56.77
22753;BME280;11543;43.144;24.684;2022-12-29T14:04:29;99685.00;;;13.19;56.81
22753;BME280;11543;43.144;24.684;2022-12-29T14:07:19;99680.19;;;13.13;56.83
22753;BME280;11543;43.144;24.684;2022-12-29T14:17:35;99688.25;;;12.86;57.08
22753;BME280;11543;43.144;24.684;2022-12-29T14:20:01;99689.25;;;12.85;57.06
22753;BME280;11543;43.144;24.684;2022-12-29T14:22:29;99693.63;;;12.86;57.09
22753;BME280;11543;43.144;24.684;2022-12-29T14:24:54;99684.84;;;12.84;57.14
22753;BME280;11543;43.144;24.684;2022-12-29T14:29:45;99688.13;;;12.77;57.12
22753;BME280;11543;43.144;24.684;2022-12-29T14:34:52;99692.59;;;12.59;57.08
22753;BME280;11543;43.144;24.684;2022-12-29T14:37:34;99696.03;;;12.52;57.44
22753;BME280;11543;43.144;24.684;2022-12-29T14:42:28;99689.69;;;12.43;57.85
22753;BME280;11543;43.144;24.684;2022-12-29T14:49:54;99698.34;;;12.37;57.98
22753;BME280;11543;43.144;24.684;2022-12-29T14:52:21;99701.31;;;12.34;58.17
22753;BME280;11543;43.144;24.684;2022-12-29T14:54:51;99701.22;;;12.26;58.49
22753;BME280;11543;43.144;24.684;2022-12-29T14:57:31;99702.63;;;12.20;58.63
22753;BME280;11543;43.144;24.684;2022-12-29T15:00:00;99702.06;;;12.17;58.91
22753;BME280;11543;43.144;24.684;2022-12-29T15:02:27;99702.06;;;12.17;59.11
22753;BME280;11543;43.144;24.684;2022-12-29T15:04:58;99713.94;;;12.24;59.06
22753;BME280;11543;43.144;24.684;2022-12-29T15:07:24;99710.28;;;12.25;58.91
22753;BME280;11543;43.144;24.684;2022-12-29T15:09:53;99701.06;;;12.27;58.63
22753;BME280;11543;43.144;24.684;2022-12-29T15:12:39;99699.50;;;12.25;58.66
22753;BME280;11543;43.144;24.684;2022-12-29T15:15:22;99696.13;;;12.23;58.72
22753;BME280;11543;43.144;24.684;2022-12-29T15:17:48;99702.34;;;12.13;58.50
22753;BME280;11543;43.144;24.684;2022-12-29T15:22:43;99703.22;;;12.14;58.88
22753;BME280;11543;43.144;24.684;2022-12-29T15:25:12;99700.38;;;12.16;58.76